sensor_id;sensor_type;location;lat;lon;timestamp;P1;durP1;ratioP1;P2;durP2;ratioP2
6053;SDS011;3055;50.886;14.814;2023-03-01T00:00:03;58.70;;;32.97;;
6053;SDS011;3055;50.886;14.814;2023-03-01T00:02:32;56.93;;;32.20;;
6053;SDS011;3055;50.886;14.814;2023-03-01T00:05:00;44.37;;;28.27;;
6053;SDS011;3055;50.886;14.814;2023-03-01T00:07:27;44.30;;;27.47;;
6053;SDS011;3055;50.886;14.814;2023-03-01T00:09:54;49.13;;;27.63;;
6053;SDS011;3055;50.886;14.814;2023-03-01T00:12:22;46.13;;;28.27;;
6053;SDS011;3055;50.886;14.814;2023-03-01T00:14:49;41.00;;;26.30;;
6053;SDS011;3055;50.886;14.814;2023-03-01T00:17:16;39.57;;;27.37;;
6053;SDS011;3055;50.886;14.814;2023-03-01T00:19:43;42.50;;;26.77;;
6053;SDS011;3055;50.886;14.814;2023-03-01T00:22:11;41.10;;;26.80;;
6053;SDS011;3055;50.886;14.814;2023-03-01T00:24:39;40.77;;;25.53;;
6053;SDS011;3055;50.886;14.814;2023-03-01T00:27:06;47.20;;;27.13;;
6053;SDS011;3055;50.886;14.814;2023-03-01T00:29:33;42.17;;;26.93;;
6053;SDS011;3055;50.886;14.814;2023-03-01T00:32:00;46.80;;;26.63;;
6053;SDS011;3055;50.886;14.814;2023-03-01T00:34:27;46.07;;;25.67;;
6053;SDS011;3055;50.886;14.814;2023-03-01T00:36:55;43.93;;;26.00;;
6053;SDS011;3055;50.886;14.814;2023-03-01T00:39:31;38.93;;;25.43;;
6053;SDS011;3055;50.886;14.814;2023-03-01T00:41:58;44.57;;;26.77;;
6053;SDS011;3055;50.886;14.814;2023-03-01T00:44:26;40.00;;;25.47;;
6053;SDS011;3055;50.886;14.814;2023-03-01T00:46:53;43.13;;;25.83;;
6053;SDS011;3055;50.886;14.814;2023-03-01T00:49:20;43.33;;;26.93;;
6053;SDS011;3055;50.886;14.814;2023-03-01T00:51:49;46.20;;;25.97;;
6053;SDS011;3055;50.886;14.814;2023-03-01T00:54:16;43.77;;;26.63;;
6053;SDS011;3055;50.886;14.814;2023-03-01T00:56:45;41.20;;;26.63;;
6053;SDS011;3055;50.886;14.814;2023-03-01T00:59:12;41.37;;;26.00;;
6053;SDS011;3055;50.886;14.814;2023-03-01T01:01:39;42.17;;;27.17;;
6053;SDS011;3055;50.886;14.814;2023-03-01T01:04:07;38.73;;;25.50;;
6053;SDS011;3055;50.886;14.814;2023-03-01T01:06:36;42.07;;;25.27;;
6053;SDS011;3055;50.886;14.814;2023-03-01T01:09:05;37.30;;;25.63;;
6053;SDS011;3055;50.886;14.814;2023-03-01T01:11:33;39.80;;;26.00;;
6053;SDS011;3055;50.886;14.814;2023-03-01T01:14:03;42.03;;;26.33;;
6053;SDS011;3055;50.886;14.814;2023-03-01T01:16:30;40.30;;;25.17;;
6053;SDS011;3055;50.886;14.814;2023-03-01T01:18:57;41.93;;;27.13;;
6053;SDS011;3055;50.886;14.814;2023-03-01T01:21:24;41.97;;;26.47;;
6053;SDS011;3055;50.886;14.814;2023-03-01T01:23:52;45.03;;;28.20;;
6053;SDS011;3055;50.886;14.814;2023-03-01T01:26:20;43.43;;;27.43;;
6053;SDS011;3055;50.886;14.814;2023-03-01T01:28:49;43.90;;;27.33;;
6053;SDS011;3055;50.886;14.814;2023-03-01T01:31:18;48.77;;;26.97;;
6053;SDS011;3055;50.886;14.814;2023-03-01T01:33:48;46.37;;;28.97;;
6053;SDS011;3055;50.886;14.814;2023-03-01T01:36:16;44.20;;;25.77;;
6053;SDS011;3055;50.886;14.814;2023-03-01T01:38:43;36.17;;;24.73;;
6053;SDS011;3055;50.886;14.814;2023-03-01T01:41:11;41.83;;;26.80;;
6053;SDS011;3055;50.886;14.814;2023-03-01T01:43:40;43.97;;;27.30;;
6053;SDS011;3055;50.886;14.814;2023-03-01T01:46:10;42.27;;;25.53;;
6053;SDS011;3055;50.886;14.814;2023-03-01T01:48:50;38.73;;;25.37;;
6053;SDS011;3055;50.886;14.814;2023-03-01T01:51:21;41.60;;;26.07;;
6053;SDS011;3055;50.886;14.814;2023-03-01T01:53:55;40.10;;;26.47;;
6053;SDS011;3055;50.886;14.814;2023-03-01T01:56:25;42.73;;;26.67;;
6053;SDS011;3055;50.886;14.814;2023-03-01T01:58:55;40.97;;;25.80;;
6053;SDS011;3055;50.886;14.814;2023-03-01T02:01:24;40.97;;;25.30;;
6053;SDS011;3055;50.886;14.814;2023-03-01T02:03:51;44.37;;;26.50;;
6053;SDS011;3055;50.886;14.814;2023-03-01T02:06:20;44.77;;;25.30;;
6053;SDS011;3055;50.886;14.814;2023-03-01T02:08:54;47.57;;;25.70;;
6053;SDS011;3055;50.886;14.814;2023-03-01T02:11:25;44.03;;;24.93;;
6053;SDS011;3055;50.886;14.814;2023-03-01T02:13:53;37.27;;;25.13;;
6053;SDS011;3055;50.886;14.814;2023-03-01T02:16:21;45.63;;;25.97;;
6053;SDS011;3055;50.886;14.814;2023-03-01T02:18:49;43.63;;;25.23;;
6053;SDS011;3055;50.886;14.814;2023-03-01T02:21:20;38.33;;;25.40;;
6053;SDS011;3055;50.886;14.814;2023-03-01T02:23:57;44.43;;;25.77;;
6053;SDS011;3055;50.886;14.814;2023-03-01T02:26:31;39.60;;;23.50;;
6053;SDS011;3055;50.886;14.814;2023-03-01T02:29:03;40.33;;;24.27;;
6053;SDS011;3055;50.886;14.814;2023-03-01T02:31:31;43.60;;;25.07;;
6053;SDS011;3055;50.886;14.814;2023-03-01T02:34:07;40.37;;;25.17;;
6053;SDS011;3055;50.886;14.814;2023-03-01T02:36:38;38.60;;;26.00;;
6053;SDS011;3055;50.886;14.814;2023-03-01T02:39:07;44.57;;;25.03;;
6053;SDS011;3055;50.886;14.814;2023-03-01T02:41:39;42.00;;;24.27;;
6053;SDS011;3055;50.886;14.814;2023-03-01T02:44:10;43.20;;;24.87;;
6053;SDS011;3055;50.886;14.814;2023-03-01T02:46:41;43.03;;;24.97;;
6053;SDS011;3055;50.886;14.814;2023-03-01T02:49:18;33.97;;;22.67;;
6053;SDS011;3055;50.886;14.814;2023-03-01T02:51:49;34.17;;;22.27;;
6053;SDS011;3055;50.886;14.814;2023-03-01T02:54:28;33.23;;;22.70;;
6053;SDS011;3055;50.886;14.814;2023-03-01T02:57:00;34.93;;;22.20;;
6053;SDS011;3055;50.886;14.814;2023-03-01T02:59:30;35.90;;;21.53;;
6053;SDS011;3055;50.886;14.814;2023-03-01T03:02:05;34.93;;;22.73;;
6053;SDS011;3055;50.886;14.814;2023-03-01T03:04:33;45.93;;;24.73;;
6053;SDS011;3055;50.886;14.814;2023-03-01T03:07:00;38.30;;;24.50;;
6053;SDS011;3055;50.886;14.814;2023-03-01T03:09:27;39.13;;;24.83;;
6053;SDS011;3055;50.886;14.814;2023-03-01T03:11:54;43.13;;;26.17;;
6053;SDS011;3055;50.886;14.814;2023-03-01T03:14:21;44.23;;;25.50;;
6053;SDS011;3055;50.886;14.814;2023-03-01T03:16:50;49.37;;;28.53;;
6053;SDS011;3055;50.886;14.814;2023-03-01T03:19:17;46.83;;;29.53;;
6053;SDS011;3055;50.886;14.814;2023-03-01T03:21:45;47.70;;;29.77;;
6053;SDS011;3055;50.886;14.814;2023-03-01T03:24:12;49.00;;;28.80;;
6053;SDS011;3055;50.886;14.814;2023-03-01T03:26:39;50.90;;;31.57;;
6053;SDS011;3055;50.886;14.814;2023-03-01T03:29:06;46.87;;;29.03;;
6053;SDS011;3055;50.886;14.814;2023-03-01T03:31:33;46.83;;;28.60;;
6053;SDS011;3055;50.886;14.814;2023-03-01T03:34:02;50.87;;;30.60;;
6053;SDS011;3055;50.886;14.814;2023-03-01T03:36:29;44.60;;;25.77;;
6053;SDS011;3055;50.886;14.814;2023-03-01T03:38:56;47.47;;;26.93;;
6053;SDS011;3055;50.886;14.814;2023-03-01T03:41:23;43.87;;;25.83;;
6053;SDS011;3055;50.886;14.814;2023-03-01T03:43:50;37.23;;;23.77;;
6053;SDS011;3055;50.886;14.814;2023-03-01T03:46:17;41.57;;;25.03;;
6053;SDS011;3055;50.886;14.814;2023-03-01T03:48:44;41.83;;;25.60;;
6053;SDS011;3055;50.886;14.814;2023-03-01T03:51:14;43.97;;;25.37;;
6053;SDS011;3055;50.886;14.814;2023-03-01T03:53:43;42.30;;;25.47;;
6053;SDS011;3055;50.886;14.814;2023-03-01T03:56:11;41.67;;;25.00;;
6053;SDS011;3055;50.886;14.814;2023-03-01T03:58:38;39.40;;;24.63;;
6053;SDS011;3055;50.886;14.814;2023-03-01T04:01:06;41.73;;;24.70;;
6053;SDS011;3055;50.886;14.814;2023-03-01T04:03:33;38.10;;;24.43;;
6053;SDS011;3055;50.886;14.814;2023-03-01T04:06:01;40.87;;;25.17;;
6053;SDS011;3055;50.886;14.814;2023-03-01T04:08:30;42.20;;;24.10;;
6053;SDS011;3055;50.886;14.814;2023-03-01T04:10:58;39.23;;;24.17;;
6053;SDS011;3055;50.886;14.814;2023-03-01T04:13:47;37.40;;;24.00;;
6053;SDS011;3055;50.886;14.814;2023-03-01T04:16:14;47.23;;;25.73;;
6053;SDS011;3055;50.886;14.814;2023-03-01T04:18:41;45.10;;;25.93;;
6053;SDS011;3055;50.886;14.814;2023-03-01T04:21:08;40.27;;;23.27;;
6053;SDS011;3055;50.886;14.814;2023-03-01T04:23:37;42.67;;;24.67;;
6053;SDS011;3055;50.886;14.814;2023-03-01T04:26:05;40.43;;;25.67;;
6053;SDS011;3055;50.886;14.814;2023-03-01T04:28:33;40.70;;;24.53;;
6053;SDS011;3055;50.886;14.814;2023-03-01T04:31:02;42.07;;;24.47;;
6053;SDS011;3055;50.886;14.814;2023-03-01T04:33:37;39.73;;;23.90;;
6053;SDS011;3055;50.886;14.814;2023-03-01T04:36:06;40.73;;;22.97;;
6053;SDS011;3055;50.886;14.814;2023-03-01T04:38:35;39.10;;;23.77;;
6053;SDS011;3055;50.886;14.814;2023-03-01T04:41:05;38.17;;;23.13;;
6053;SDS011;3055;50.886;14.814;2023-03-01T04:43:33;38.00;;;23.07;;
6053;SDS011;3055;50.886;14.814;2023-03-01T04:46:01;40.70;;;24.80;;
6053;SDS011;3055;50.886;14.814;2023-03-01T04:48:29;39.73;;;24.27;;
6053;SDS011;3055;50.886;14.814;2023-03-01T04:50:57;46.90;;;25.40;;
6053;SDS011;3055;50.886;14.814;2023-03-01T04:53:25;41.97;;;24.97;;
6053;SDS011;3055;50.886;14.814;2023-03-01T04:55:53;40.43;;;24.37;;
6053;SDS011;3055;50.886;14.814;2023-03-01T04:58:22;42.03;;;24.67;;
6053;SDS011;3055;50.886;14.814;2023-03-01T05:00:49;41.77;;;23.90;;
6053;SDS011;3055;50.886;14.814;2023-03-01T05:03:16;43.47;;;24.13;;
6053;SDS011;3055;50.886;14.814;2023-03-01T05:05:44;42.63;;;25.30;;
6053;SDS011;3055;50.886;14.814;2023-03-01T05:08:14;45.40;;;24.97;;
6053;SDS011;3055;50.886;14.814;2023-03-01T05:10:43;43.73;;;27.10;;
6053;SDS011;3055;50.886;14.814;2023-03-01T05:13:12;44.27;;;25.00;;
6053;SDS011;3055;50.886;14.814;2023-03-01T05:15:45;42.63;;;24.73;;
6053;SDS011;3055;50.886;14.814;2023-03-01T05:18:13;43.10;;;23.63;;
6053;SDS011;3055;50.886;14.814;2023-03-01T05:20:40;37.57;;;23.90;;
6053;SDS011;3055;50.886;14.814;2023-03-01T05:23:07;37.50;;;23.70;;
6053;SDS011;3055;50.886;14.814;2023-03-01T05:25:34;41.67;;;24.77;;
6053;SDS011;3055;50.886;14.814;2023-03-01T05:28:05;38.57;;;23.37;;
6053;SDS011;3055;50.886;14.814;2023-03-01T05:30:34;41.27;;;23.73;;
6053;SDS011;3055;50.886;14.814;2023-03-01T05:33:03;39.50;;;23.70;;
6053;SDS011;3055;50.886;14.814;2023-03-01T05:35:32;39.23;;;25.63;;
6053;SDS011;3055;50.886;14.814;2023-03-01T05:37:59;44.97;;;25.33;;
6053;SDS011;3055;50.886;14.814;2023-03-01T05:40:26;31.90;;;21.47;;
6053;SDS011;3055;50.886;14.814;2023-03-01T05:42:55;38.13;;;24.57;;
6053;SDS011;3055;50.886;14.814;2023-03-01T05:45:23;38.50;;;24.30;;
6053;SDS011;3055;50.886;14.814;2023-03-01T05:47:52;40.30;;;25.07;;
6053;SDS011;3055;50.886;14.814;2023-03-01T05:50:22;40.10;;;23.83;;
6053;SDS011;3055;50.886;14.814;2023-03-01T05:52:50;40.23;;;24.07;;
6053;SDS011;3055;50.886;14.814;2023-03-01T05:55:19;43.87;;;25.40;;
6053;SDS011;3055;50.886;14.814;2023-03-01T05:57:47;38.43;;;24.70;;
6053;SDS011;3055;50.886;14.814;2023-03-01T06:00:16;46.57;;;27.23;;
6053;SDS011;3055;50.886;14.814;2023-03-01T06:02:45;46.73;;;27.07;;
6053;SDS011;3055;50.886;14.814;2023-03-01T06:05:12;45.53;;;27.43;;
6053;SDS011;3055;50.886;14.814;2023-03-01T06:07:41;47.83;;;27.57;;
6053;SDS011;3055;50.886;14.814;2023-03-01T06:10:09;51.57;;;28.90;;
6053;SDS011;3055;50.886;14.814;2023-03-01T06:12:38;45.40;;;27.27;;
6053;SDS011;3055;50.886;14.814;2023-03-01T06:15:07;45.03;;;27.13;;
6053;SDS011;3055;50.886;14.814;2023-03-01T06:17:35;49.40;;;28.57;;
6053;SDS011;3055;50.886;14.814;2023-03-01T06:20:04;44.80;;;26.17;;
6053;SDS011;3055;50.886;14.814;2023-03-01T06:22:33;49.93;;;25.80;;
6053;SDS011;3055;50.886;14.814;2023-03-01T06:25:02;50.20;;;26.83;;
6053;SDS011;3055;50.886;14.814;2023-03-01T06:27:29;45.47;;;28.10;;
6053;SDS011;3055;50.886;14.814;2023-03-01T06:29:56;43.63;;;26.90;;
6053;SDS011;3055;50.886;14.814;2023-03-01T06:32:23;39.60;;;26.37;;
6053;SDS011;3055;50.886;14.814;2023-03-01T06:34:50;42.73;;;26.23;;
6053;SDS011;3055;50.886;14.814;2023-03-01T06:37:17;45.90;;;27.53;;
6053;SDS011;3055;50.886;14.814;2023-03-01T06:39:44;41.00;;;26.13;;
6053;SDS011;3055;50.886;14.814;2023-03-01T06:42:13;49.63;;;26.00;;
6053;SDS011;3055;50.886;14.814;2023-03-01T06:44:40;51.67;;;28.17;;
6053;SDS011;3055;50.886;14.814;2023-03-01T06:47:07;48.53;;;26.80;;
6053;SDS011;3055;50.886;14.814;2023-03-01T06:49:35;45.47;;;27.60;;
6053;SDS011;3055;50.886;14.814;2023-03-01T06:52:02;44.53;;;26.97;;
6053;SDS011;3055;50.886;14.814;2023-03-01T06:54:30;46.43;;;27.47;;
6053;SDS011;3055;50.886;14.814;2023-03-01T06:56:57;46.33;;;30.20;;
6053;SDS011;3055;50.886;14.814;2023-03-01T06:59:25;48.00;;;29.93;;
6053;SDS011;3055;50.886;14.814;2023-03-01T07:01:52;45.87;;;26.30;;
6053;SDS011;3055;50.886;14.814;2023-03-01T07:04:19;44.90;;;27.63;;
6053;SDS011;3055;50.886;14.814;2023-03-01T07:06:46;50.53;;;28.43;;
6053;SDS011;3055;50.886;14.814;2023-03-01T07:09:20;46.93;;;28.90;;
6053;SDS011;3055;50.886;14.814;2023-03-01T07:11:47;44.80;;;28.20;;
6053;SDS011;3055;50.886;14.814;2023-03-01T07:14:15;47.30;;;28.67;;
6053;SDS011;3055;50.886;14.814;2023-03-01T07:16:43;43.90;;;28.63;;
6053;SDS011;3055;50.886;14.814;2023-03-01T07:19:10;49.00;;;29.23;;
6053;SDS011;3055;50.886;14.814;2023-03-01T07:21:37;50.77;;;30.63;;
6053;SDS011;3055;50.886;14.814;2023-03-01T07:24:05;53.40;;;30.47;;
6053;SDS011;3055;50.886;14.814;2023-03-01T07:26:33;48.47;;;28.23;;
6053;SDS011;3055;50.886;14.814;2023-03-01T07:29:00;47.43;;;28.30;;
6053;SDS011;3055;50.886;14.814;2023-03-01T07:31:28;48.47;;;29.53;;
6053;SDS011;3055;50.886;14.814;2023-03-01T07:33:56;42.17;;;27.47;;
6053;SDS011;3055;50.886;14.814;2023-03-01T07:36:24;42.30;;;26.30;;
6053;SDS011;3055;50.886;14.814;2023-03-01T07:38:51;43.53;;;26.17;;
6053;SDS011;3055;50.886;14.814;2023-03-01T07:41:20;39.37;;;26.03;;
6053;SDS011;3055;50.886;14.814;2023-03-01T07:43:48;39.97;;;25.87;;
6053;SDS011;3055;50.886;14.814;2023-03-01T07:46:15;39.93;;;25.33;;
6053;SDS011;3055;50.886;14.814;2023-03-01T07:48:43;42.87;;;25.90;;
6053;SDS011;3055;50.886;14.814;2023-03-01T07:51:11;42.10;;;25.63;;
6053;SDS011;3055;50.886;14.814;2023-03-01T07:53:39;43.80;;;27.93;;
6053;SDS011;3055;50.886;14.814;2023-03-01T07:56:07;39.00;;;24.93;;
6053;SDS011;3055;50.886;14.814;2023-03-01T07:58:36;45.20;;;25.77;;
6053;SDS011;3055;50.886;14.814;2023-03-01T08:01:04;46.13;;;28.07;;
6053;SDS011;3055;50.886;14.814;2023-03-01T08:03:32;41.20;;;26.07;;
6053;SDS011;3055;50.886;14.814;2023-03-01T08:06:00;41.97;;;25.83;;
6053;SDS011;3055;50.886;14.814;2023-03-01T08:08:29;44.73;;;28.10;;
6053;SDS011;3055;50.886;14.814;2023-03-01T08:10:56;44.83;;;28.17;;
6053;SDS011;3055;50.886;14.814;2023-03-01T08:13:24;43.17;;;26.90;;
6053;SDS011;3055;50.886;14.814;2023-03-01T08:15:51;38.43;;;25.47;;
6053;SDS011;3055;50.886;14.814;2023-03-01T08:18:19;35.40;;;25.33;;
6053;SDS011;3055;50.886;14.814;2023-03-01T08:20:47;44.13;;;26.53;;
6053;SDS011;3055;50.886;14.814;2023-03-01T08:23:14;43.60;;;25.70;;
6053;SDS011;3055;50.886;14.814;2023-03-01T08:25:42;41.97;;;25.93;;
6053;SDS011;3055;50.886;14.814;2023-03-01T08:28:09;42.17;;;25.90;;
6053;SDS011;3055;50.886;14.814;2023-03-01T08:30:36;40.47;;;25.03;;
6053;SDS011;3055;50.886;14.814;2023-03-01T08:33:03;43.43;;;27.83;;
6053;SDS011;3055;50.886;14.814;2023-03-01T08:35:30;45.60;;;28.43;;
6053;SDS011;3055;50.886;14.814;2023-03-01T08:37:57;46.37;;;27.70;;
6053;SDS011;3055;50.886;14.814;2023-03-01T08:40:25;39.67;;;26.67;;
6053;SDS011;3055;50.886;14.814;2023-03-01T08:42:53;43.07;;;27.40;;
6053;SDS011;3055;50.886;14.814;2023-03-01T08:45:20;42.00;;;25.93;;
6053;SDS011;3055;50.886;14.814;2023-03-01T08:47:47;44.20;;;27.43;;
6053;SDS011;3055;50.886;14.814;2023-03-01T08:50:18;45.27;;;26.50;;
6053;SDS011;3055;50.886;14.814;2023-03-01T08:52:45;39.53;;;25.87;;
6053;SDS011;3055;50.886;14.814;2023-03-01T08:55:12;39.37;;;26.83;;
6053;SDS011;3055;50.886;14.814;2023-03-01T08:57:41;44.40;;;26.87;;
6053;SDS011;3055;50.886;14.814;2023-03-01T09:00:10;39.67;;;26.67;;
6053;SDS011;3055;50.886;14.814;2023-03-01T09:02:39;42.53;;;26.93;;
6053;SDS011;3055;50.886;14.814;2023-03-01T09:05:07;43.97;;;28.03;;
6053;SDS011;3055;50.886;14.814;2023-03-01T09:07:35;42.70;;;27.60;;
6053;SDS011;3055;50.886;14.814;2023-03-01T09:10:02;41.13;;;27.27;;
6053;SDS011;3055;50.886;14.814;2023-03-01T09:12:30;44.47;;;27.67;;
6053;SDS011;3055;50.886;14.814;2023-03-01T09:14:57;48.10;;;27.20;;
6053;SDS011;3055;50.886;14.814;2023-03-01T09:17:26;41.73;;;27.63;;
6053;SDS011;3055;50.886;14.814;2023-03-01T09:19:53;42.03;;;27.53;;
6053;SDS011;3055;50.886;14.814;2023-03-01T09:22:20;42.43;;;27.53;;
6053;SDS011;3055;50.886;14.814;2023-03-01T09:24:47;42.30;;;28.00;;
6053;SDS011;3055;50.886;14.814;2023-03-01T09:27:14;44.93;;;29.40;;
6053;SDS011;3055;50.886;14.814;2023-03-01T09:29:43;42.93;;;27.33;;
6053;SDS011;3055;50.886;14.814;2023-03-01T09:32:10;42.13;;;26.63;;
6053;SDS011;3055;50.886;14.814;2023-03-01T09:34:39;41.50;;;26.53;;
6053;SDS011;3055;50.886;14.814;2023-03-01T09:37:20;43.30;;;26.93;;
6053;SDS011;3055;50.886;14.814;2023-03-01T09:39:47;40.00;;;25.97;;
6053;SDS011;3055;50.886;14.814;2023-03-01T09:42:14;40.00;;;25.37;;
6053;SDS011;3055;50.886;14.814;2023-03-01T09:44:43;40.03;;;26.67;;
6053;SDS011;3055;50.886;14.814;2023-03-01T09:47:16;44.07;;;28.07;;
6053;SDS011;3055;50.886;14.814;2023-03-01T09:49:48;45.30;;;27.13;;
6053;SDS011;3055;50.886;14.814;2023-03-01T09:52:26;39.53;;;26.30;;
6053;SDS011;3055;50.886;14.814;2023-03-01T09:54:57;39.93;;;26.23;;
6053;SDS011;3055;50.886;14.814;2023-03-01T09:57:26;44.97;;;27.20;;
6053;SDS011;3055;50.886;14.814;2023-03-01T10:00:14;42.07;;;25.90;;
6053;SDS011;3055;50.886;14.814;2023-03-01T10:02:52;40.97;;;25.77;;
6053;SDS011;3055;50.886;14.814;2023-03-01T10:05:31;43.70;;;26.40;;
6053;SDS011;3055;50.886;14.814;2023-03-01T10:08:15;39.87;;;27.03;;
6053;SDS011;3055;50.886;14.814;2023-03-01T10:10:54;41.33;;;26.00;;
6053;SDS011;3055;50.886;14.814;2023-03-01T10:13:23;45.87;;;28.00;;
6053;SDS011;3055;50.886;14.814;2023-03-01T10:15:55;44.67;;;28.97;;
6053;SDS011;3055;50.886;14.814;2023-03-01T10:18:26;41.80;;;27.67;;
6053;SDS011;3055;50.886;14.814;2023-03-01T10:20:58;41.60;;;27.60;;
6053;SDS011;3055;50.886;14.814;2023-03-01T10:23:27;40.30;;;26.43;;
6053;SDS011;3055;50.886;14.814;2023-03-01T10:28:50;38.97;;;25.33;;
6053;SDS011;3055;50.886;14.814;2023-03-01T10:31:24;39.23;;;25.63;;
6053;SDS011;3055;50.886;14.814;2023-03-01T10:33:54;41.83;;;26.67;;
6053;SDS011;3055;50.886;14.814;2023-03-01T10:36:23;33.03;;;24.27;;
6053;SDS011;3055;50.886;14.814;2023-03-01T10:38:51;39.20;;;24.50;;
6053;SDS011;3055;50.886;14.814;2023-03-01T10:41:19;35.33;;;23.50;;
6053;SDS011;3055;50.886;14.814;2023-03-01T10:43:49;29.37;;;21.70;;
6053;SDS011;3055;50.886;14.814;2023-03-01T10:46:25;32.53;;;21.50;;
6053;SDS011;3055;50.886;14.814;2023-03-01T10:49:07;32.90;;;20.50;;
6053;SDS011;3055;50.886;14.814;2023-03-01T10:51:43;25.40;;;18.67;;
6053;SDS011;3055;50.886;14.814;2023-03-01T10:54:15;25.77;;;17.23;;
6053;SDS011;3055;50.886;14.814;2023-03-01T10:56:48;27.10;;;17.10;;
6053;SDS011;3055;50.886;14.814;2023-03-01T10:59:25;28.33;;;17.90;;
6053;SDS011;3055;50.886;14.814;2023-03-01T11:02:16;25.20;;;17.13;;
6053;SDS011;3055;50.886;14.814;2023-03-01T11:04:57;26.27;;;17.87;;
6053;SDS011;3055;50.886;14.814;2023-03-01T11:07:27;29.13;;;19.13;;
6053;SDS011;3055;50.886;14.814;2023-03-01T11:09:54;28.97;;;19.27;;
6053;SDS011;3055;50.886;14.814;2023-03-01T11:12:22;26.57;;;18.57;;
6053;SDS011;3055;50.886;14.814;2023-03-01T11:14:50;25.80;;;18.37;;
6053;SDS011;3055;50.886;14.814;2023-03-01T11:17:21;28.07;;;19.60;;
6053;SDS011;3055;50.886;14.814;2023-03-01T11:20:01;27.97;;;18.90;;
6053;SDS011;3055;50.886;14.814;2023-03-01T11:22:34;30.33;;;20.07;;
6053;SDS011;3055;50.886;14.814;2023-03-01T11:25:02;29.97;;;20.00;;
6053;SDS011;3055;50.886;14.814;2023-03-01T11:27:31;33.80;;;20.80;;
6053;SDS011;3055;50.886;14.814;2023-03-01T11:29:59;33.37;;;21.57;;
6053;SDS011;3055;50.886;14.814;2023-03-01T11:32:32;31.77;;;19.50;;
6053;SDS011;3055;50.886;14.814;2023-03-01T11:35:08;31.70;;;21.23;;
6053;SDS011;3055;50.886;14.814;2023-03-01T11:37:44;30.10;;;20.07;;
6053;SDS011;3055;50.886;14.814;2023-03-01T11:40:22;29.13;;;19.30;;
6053;SDS011;3055;50.886;14.814;2023-03-01T11:42:56;33.10;;;21.23;;
6053;SDS011;3055;50.886;14.814;2023-03-01T11:45:42;30.37;;;19.80;;
6053;SDS011;3055;50.886;14.814;2023-03-01T11:48:24;24.70;;;19.03;;
6053;SDS011;3055;50.886;14.814;2023-03-01T11:51:01;25.50;;;17.33;;
6053;SDS011;3055;50.886;14.814;2023-03-01T11:53:42;29.03;;;16.87;;
6053;SDS011;3055;50.886;14.814;2023-03-01T11:56:25;26.40;;;18.40;;
6053;SDS011;3055;50.886;14.814;2023-03-01T11:59:00;30.07;;;18.67;;
6053;SDS011;3055;50.886;14.814;2023-03-01T12:01:40;27.77;;;17.83;;
6053;SDS011;3055;50.886;14.814;2023-03-01T12:07:20;19.77;;;15.10;;
6053;SDS011;3055;50.886;14.814;2023-03-01T12:10:10;16.97;;;12.87;;
6053;SDS011;3055;50.886;14.814;2023-03-01T12:12:51;18.83;;;12.70;;
6053;SDS011;3055;50.886;14.814;2023-03-01T12:15:32;18.23;;;13.23;;
6053;SDS011;3055;50.886;14.814;2023-03-01T12:21:19;19.73;;;12.87;;
6053;SDS011;3055;50.886;14.814;2023-03-01T12:27:04;21.70;;;15.53;;
6053;SDS011;3055;50.886;14.814;2023-03-01T12:29:53;21.07;;;15.43;;
6053;SDS011;3055;50.886;14.814;2023-03-01T12:32:28;22.67;;;15.73;;
6053;SDS011;3055;50.886;14.814;2023-03-01T12:35:11;23.60;;;15.93;;
6053;SDS011;3055;50.886;14.814;2023-03-01T12:37:56;23.17;;;15.23;;
6053;SDS011;3055;50.886;14.814;2023-03-01T12:40:42;34.90;;;22.90;;
6053;SDS011;3055;50.886;14.814;2023-03-01T12:43:24;23.57;;;16.47;;
6053;SDS011;3055;50.886;14.814;2023-03-01T12:46:10;25.67;;;16.47;;
6053;SDS011;3055;50.886;14.814;2023-03-01T12:48:48;27.63;;;18.33;;
6053;SDS011;3055;50.886;14.814;2023-03-01T12:51:26;26.00;;;18.40;;
6053;SDS011;3055;50.886;14.814;2023-03-01T12:53:58;23.03;;;17.27;;
6053;SDS011;3055;50.886;14.814;2023-03-01T12:56:29;24.43;;;17.20;;
6053;SDS011;3055;50.886;14.814;2023-03-01T12:59:02;23.70;;;17.13;;
6053;SDS011;3055;50.886;14.814;2023-03-01T13:01:36;23.17;;;17.40;;
6053;SDS011;3055;50.886;14.814;2023-03-01T13:04:31;25.70;;;18.70;;
6053;SDS011;3055;50.886;14.814;2023-03-01T13:07:09;29.37;;;18.37;;
6053;SDS011;3055;50.886;14.814;2023-03-01T13:09:48;26.60;;;17.37;;
6053;SDS011;3055;50.886;14.814;2023-03-01T13:12:45;22.83;;;16.87;;
6053;SDS011;3055;50.886;14.814;2023-03-01T13:15:29;27.87;;;19.13;;
6053;SDS011;3055;50.886;14.814;2023-03-01T13:17:58;27.33;;;19.33;;
6053;SDS011;3055;50.886;14.814;2023-03-01T13:20:29;28.93;;;19.47;;
6053;SDS011;3055;50.886;14.814;2023-03-01T13:23:04;24.30;;;17.73;;
6053;SDS011;3055;50.886;14.814;2023-03-01T13:34:40;25.37;;;18.43;;
6053;SDS011;3055;50.886;14.814;2023-03-01T13:37:09;23.93;;;16.47;;
6053;SDS011;3055;50.886;14.814;2023-03-01T13:39:39;22.37;;;16.40;;
6053;SDS011;3055;50.886;14.814;2023-03-01T13:44:56;25.87;;;16.30;;
6053;SDS011;3055;50.886;14.814;2023-03-01T13:47:25;25.50;;;16.43;;
6053;SDS011;3055;50.886;14.814;2023-03-01T13:49:55;21.00;;;15.27;;
6053;SDS011;3055;50.886;14.814;2023-03-01T13:52:37;25.47;;;17.73;;
6053;SDS011;3055;50.886;14.814;2023-03-01T13:55:19;20.73;;;14.20;;
6053;SDS011;3055;50.886;14.814;2023-03-01T13:57:49;20.63;;;15.73;;
6053;SDS011;3055;50.886;14.814;2023-03-01T14:00:27;23.00;;;15.40;;
6053;SDS011;3055;50.886;14.814;2023-03-01T14:03:04;21.57;;;16.00;;
6053;SDS011;3055;50.886;14.814;2023-03-01T14:05:35;20.20;;;15.87;;
6053;SDS011;3055;50.886;14.814;2023-03-01T14:08:03;20.30;;;15.73;;
6053;SDS011;3055;50.886;14.814;2023-03-01T14:10:32;19.67;;;14.63;;
6053;SDS011;3055;50.886;14.814;2023-03-01T14:13:23;20.97;;;14.67;;
6053;SDS011;3055;50.886;14.814;2023-03-01T14:16:04;20.70;;;14.57;;
6053;SDS011;3055;50.886;14.814;2023-03-01T14:18:43;18.07;;;13.07;;
6053;SDS011;3055;50.886;14.814;2023-03-01T14:21:18;18.80;;;13.50;;
6053;SDS011;3055;50.886;14.814;2023-03-01T14:23:47;21.23;;;14.20;;
6053;SDS011;3055;50.886;14.814;2023-03-01T14:26:19;18.97;;;14.10;;
6053;SDS011;3055;50.886;14.814;2023-03-01T14:28:47;19.27;;;13.80;;
6053;SDS011;3055;50.886;14.814;2023-03-01T14:34:15;24.83;;;14.40;;
6053;SDS011;3055;50.886;14.814;2023-03-01T14:36:46;22.20;;;14.90;;
6053;SDS011;3055;50.886;14.814;2023-03-01T14:39:16;18.60;;;13.43;;
6053;SDS011;3055;50.886;14.814;2023-03-01T14:41:45;21.40;;;14.93;;
6053;SDS011;3055;50.886;14.814;2023-03-01T14:44:14;22.17;;;15.23;;
6053;SDS011;3055;50.886;14.814;2023-03-01T14:46:45;22.30;;;15.57;;
6053;SDS011;3055;50.886;14.814;2023-03-01T14:49:15;23.20;;;15.67;;
6053;SDS011;3055;50.886;14.814;2023-03-01T14:51:48;19.80;;;15.00;;
6053;SDS011;3055;50.886;14.814;2023-03-01T14:54:20;21.80;;;15.77;;
6053;SDS011;3055;50.886;14.814;2023-03-01T14:56:50;21.90;;;15.13;;
6053;SDS011;3055;50.886;14.814;2023-03-01T14:59:19;22.70;;;15.27;;
6053;SDS011;3055;50.886;14.814;2023-03-01T15:01:48;23.73;;;15.30;;
6053;SDS011;3055;50.886;14.814;2023-03-01T15:04:18;22.00;;;15.83;;
6053;SDS011;3055;50.886;14.814;2023-03-01T15:06:50;24.73;;;15.50;;
6053;SDS011;3055;50.886;14.814;2023-03-01T15:09:18;21.67;;;14.37;;
6053;SDS011;3055;50.886;14.814;2023-03-01T15:11:46;23.27;;;14.63;;
6053;SDS011;3055;50.886;14.814;2023-03-01T15:17:16;24.50;;;15.80;;
6053;SDS011;3055;50.886;14.814;2023-03-01T15:19:50;22.43;;;16.63;;
6053;SDS011;3055;50.886;14.814;2023-03-01T15:22:18;24.50;;;16.40;;